Time;durP1;ratioP1;P1;durP2;ratioP2;P2;SDS_P1;SDS_P2;PMS_P1;PMS_P2;Temp;Humidity;BMP_temperature;BMP_pressure;BME280_temperature;BME280_humidity;BME280_pressure;Samples;Min_cycle;Max_cycle;Signal;HPM_P1;HPM_P2
2022/06/14 00:02:35;;;;;;;4.28;2.88;;;24.50;95.90;;;;;;5088631;28;20047;-78
2022/06/14 00:05:03;;;;;;;3.25;2.33;;;24.60;95.90;;;;;;5087037;28;20047;-78
2022/06/14 00:07:31;;;;;;;6.03;3.38;;;24.60;95.80;;;;;;5088283;28;20146;-79
2022/06/14 00:09:59;;;;;;;6.07;3.58;;;24.50;95.90;;;;;;5086738;28;20077;-79
2022/06/14 00:12:26;;;;;;;11.15;3.75;;;24.50;95.90;;;;;;5075229;28;20056;-77
2022/06/14 00:14:54;;;;;;;5.82;2.83;;;24.50;96.00;;;;;;5056366;28;20044;-78
2022/06/14 00:17:22;;;;;;;5.65;2.85;;;24.50;96.00;;;;;;5105397;28;20040;-78
2022/06/14 00:19:49;;;;;;;4.88;2.80;;;24.50;96.20;;;;;;5090752;28;20718;-78
2022/06/14 00:22:17;;;;;;;6.85;2.42;;;24.40;96.00;;;;;;5106814;28;20054;-78
2022/06/14 00:24:45;;;;;;;4.85;2.40;;;24.40;96.00;;;;;;5073422;28;20045;-78
2022/06/14 00:27:12;;;;;;;4.38;3.05;;;24.40;96.00;;;;;;5103969;28;20761;-77
2022/06/14 00:29:40;;;;;;;5.90;2.50;;;24.40;96.00;;;;;;5090344;28;20056;-78
2022/06/14 00:32:08;;;;;;;3.72;3.20;;;24.40;96.00;;;;;;5073882;28;20043;-78
2022/06/14 00:34:36;;;;;;;5.63;2.65;;;24.30;96.10;;;;;;5073749;28;20054;-78
2022/06/14 00:37:18;;;;;;;7.28;3.90;;;24.30;96.10;;;;;;5076404;28;20047;-78
2022/06/14 00:39:45;;;;;;;7.07;2.95;;;24.30;96.20;;;;;;5089975;28;20458;-78
2022/06/14 00:42:20;;;;;;;4.97;3.15;;;24.20;96.20;;;;;;5063433;28;20056;-78
2022/06/14 00:45:04;;;;;;;4.05;3.10;;;24.20;96.20;;;;;;5077441;28;20096;-78
2022/06/14 00:48:10;;;;;;;4.68;2.47;;;24.20;96.20;;;;;;5111819;28;20128;-77
2022/06/14 00:50:45;;;;;;;6.32;3.10;;;24.20;96.20;;;;;;5084512;28;20112;-78
2022/06/14 00:53:20;;;;;;;4.47;2.60;;;24.10;96.10;;;;;;5077901;28;20062;-78
2022/06/14 00:56:13;;;;;;;6.18;2.85;;;24.10;96.10;;;;;;5094948;28;20085;-78
2022/06/14 00:58:48;;;;;;;4.65;2.58;;;24.10;96.00;;;;;;5111636;28;20489;-78
2022/06/14 01:01:22;;;;;;;3.97;2.88;;;24.00;95.80;;;;;;5110784;28;20139;-78
2022/06/14 01:03:57;;;;;;;3.50;2.20;;;24.00;95.70;;;;;;5094229;28;20036;-78
2022/06/14 01:06:36;;;;;;;4.15;2.72;;;24.00;95.60;;;;;;5077667;28;20114;-78
2022/06/14 01:09:15;;;;;;;3.80;2.72;;;23.90;95.40;;;;;;5094364;28;20111;-78
2022/06/14 01:11:47;;;;;;;3.33;2.60;;;24.00;95.30;;;;;;5077145;28;20058;-78
2022/06/14 01:14:19;;;;;;;4.65;3.17;;;24.00;95.10;;;;;;5111496;28;20119;-77
2022/06/14 01:16:47;;;;;;;4.70;3.22;;;24.00;95.00;;;;;;5094550;28;20064;-78
2022/06/14 01:19:25;;;;;;;4.53;2.60;;;24.00;94.90;;;;;;5111186;28;20105;-78
2022/06/14 01:22:01;;;;;;;4.18;2.70;;;24.00;94.80;;;;;;5077396;28;20493;-77
2022/06/14 01:24:30;;;;;;;5.97;3.17;;;23.90;94.80;;;;;;5093502;28;20520;-79
2022/06/14 01:26:59;;;;;;;9.15;3.33;;;24.00;94.90;;;;;;5076767;28;20069;-79
2022/06/14 01:29:29;;;;;;;4.90;2.97;;;23.90;94.80;;;;;;5094017;28;20047;-78
2022/06/14 01:32:01;;;;;;;4.95;3.03;;;23.90;94.70;;;;;;5094070;28;20056;-78
2022/06/14 01:34:30;;;;;;;7.70;4.10;;;23.90;94.70;;;;;;5094015;28;20159;-78
2022/06/14 01:37:01;;;;;;;4.22;2.58;;;23.90;94.70;;;;;;5093614;28;20093;-79
2022/06/14 01:39:28;;;;;;;3.55;2.53;;;23.90;94.70;;;;;;5093314;28;20512;-78
2022/06/14 01:42:14;;;;;;;3.97;2.97;;;23.90;94.60;;;;;;5093309;28;20047;-78
2022/06/14 01:44:45;;;;;;;6.70;3.35;;;23.80;94.50;;;;;;5093252;28;20060;-78
2022/06/14 01:47:38;;;;;;;5.75;2.97;;;23.80;94.50;;;;;;5111907;28;20073;-78
2022/06/14 01:53:18;;;;;;;5.10;2.70;;;23.70;94.30;;;;;;5093638;28;20051;-78
2022/06/14 01:55:54;;;;;;;3.97;2.80;;;23.80;94.20;;;;;;5092214;28;20071;-78
2022/06/14 01:58:40;;;;;;;4.88;2.65;;;23.80;94.20;;;;;;5076364;28;20151;-78
2022/06/14 02:01:11;;;;;;;;;;;23.80;94.10;;;;;;5093822;28;20051;-78
2022/06/14 02:06:50;;;;;;;5.00;3.58;;;23.70;93.90;;;;;;5092835;28;20082;-78
2022/06/14 02:09:26;;;;;;;4.72;2.83;;;23.70;93.80;;;;;;5093877;28;20035;-78
2022/06/14 02:11:56;;;;;;;6.32;2.63;;;23.60;93.70;;;;;;5076611;28;20132;-78
2022/06/14 02:14:26;;;;;;;3.60;2.53;;;23.60;93.50;;;;;;5042557;28;20056;-78
2022/06/14 02:17:15;;;;;;;4.88;2.63;;;23.60;93.40;;;;;;5039397;28;20040;-78
2022/06/14 02:19:48;;;;;;;3.42;2.40;;;23.50;93.40;;;;;;5073173;28;20051;-78
2022/06/14 02:22:24;;;;;;;3.58;2.78;;;23.50;93.30;;;;;;5072884;28;20077;-77
2022/06/14 02:25:01;;;;;;;6.28;2.83;;;23.40;93.40;;;;;;5055954;28;20048;-77
2022/06/14 02:27:36;;;;;;;5.03;2.70;;;23.40;93.30;;;;;;5073113;28;20063;-78
2022/06/14 02:30:16;;;;;;;5.68;3.17;;;23.40;93.30;;;;;;5039021;28;20083;-78
2022/06/14 02:33:10;;;;;;;4.95;4.20;;;23.40;93.20;;;;;;5039304;28;20520;-78
2022/06/14 02:36:08;;;;;;;4.93;3.30;;;23.40;93.20;;;;;;5055913;28;20078;-78
2022/06/14 02:39:00;;;;;;;5.28;2.50;;;23.40;93.30;;;;;;5038947;28;20094;-78
2022/06/14 02:42:02;;;;;;;3.42;2.70;;;23.40;93.20;;;;;;5056368;28;20052;-78
2022/06/14 02:44:38;;;;;;;6.50;2.47;;;23.30;93.40;;;;;;5039627;28;20449;-78
2022/06/14 02:47:22;;;;;;;3.77;2.50;;;23.30;93.30;;;;;;5056252;28;20036;-77
2022/06/14 02:50:21;;;;;;;4.95;2.60;;;23.30;93.30;;;;;;5055933;28;20290;-78
2022/06/14 02:53:00;;;;;;;7.65;3.05;;;23.20;93.30;;;;;;5029297;28;20055;-78
2022/06/14 02:55:49;;;;;;;7.03;3.03;;;23.20;93.40;;;;;;5056311;28;20059;-78
2022/06/14 02:58:36;;;;;;;5.97;2.30;;;23.20;93.40;;;;;;5055491;28;20083;-78
2022/06/14 03:01:13;;;;;;;4.30;2.65;;;23.20;93.50;;;;;;5072171;28;20552;-78
2022/06/14 03:03:44;;;;;;;3.58;2.78;;;23.10;93.60;;;;;;5056018;28;20055;-78
2022/06/14 03:06:29;;;;;;;3.55;2.55;;;23.10;93.70;;;;;;5072576;28;20036;-78
2022/06/14 03:09:11;;;;;;;4.88;2.70;;;23.10;93.70;;;;;;5055571;28;20048;-78
2022/06/14 03:11:49;;;;;;;5.43;3.10;;;23.00;93.80;;;;;;5072292;28;20055;-77
2022/06/14 03:14:55;;;;;;;4.03;2.50;;;23.00;93.80;;;;;;5071875;28;20101;-78
2022/06/14 03:17:38;;;;;;;3.63;2.50;;;23.00;93.80;;;;;;5075565;28;20051;-77
2022/06/14 03:20:14;;;;;;;5.55;2.78;;;23.00;93.80;;;;;;5092920;28;20043;-77
2022/06/14 03:22:51;;;;;;;6.57;3.22;;;23.00;93.80;;;;;;5092495;28;20040;-78
2022/06/14 03:25:48;;;;;;;4.80;2.38;;;22.90;93.80;;;;;;5059054;28;20134;-78
2022/06/14 03:28:22;;;;;;;3.65;2.83;;;22.90;93.80;;;;;;5069032;28;20058;-77
2022/06/14 03:30:57;;;;;;;4.65;3.10;;;22.90;93.90;;;;;;5074347;28;20158;-78
2022/06/14 03:33:40;;;;;;;4.35;2.90;;;22.90;93.90;;;;;;5058076;28;20063;-78
2022/06/14 03:36:10;;;;;;;3.85;3.00;;;22.90;93.90;;;;;;5109658;28;20043;-77
2022/06/14 03:38:48;;;;;;;4.53;3.22;;;22.90;93.90;;;;;;5091590;28;20139;-78
2022/06/14 03:41:19;;;;;;;5.13;3.10;;;22.90;93.80;;;;;;5076055;28;20048;-77
2022/06/14 03:43:50;;;;;;;5.25;2.75;;;22.90;93.80;;;;;;5058780;28;20051;-78
2022/06/14 03:46:21;;;;;;;4.90;3.55;;;22.90;93.80;;;;;;5092220;28;20472;-78
2022/06/14 03:49:02;;;;;;;6.38;3.22;;;23.00;93.80;;;;;;5093625;28;20070;-77
2022/06/14 03:52:05;;;;;;;4.32;2.75;;;23.00;93.70;;;;;;5078904;28;20040;-78
2022/06/14 03:55:07;;;;;;;4.47;3.03;;;23.10;93.50;;;;;;5078718;28;20055;-78
2022/06/14 03:57:54;;;;;;;4.60;3.03;;;23.10;93.40;;;;;;5095536;28;20071;-78
2022/06/14 04:00:35;;;;;;;6.00;2.83;;;23.20;93.40;;;;;;5079240;28;20035;-77
2022/06/14 04:03:22;;;;;;;3.50;2.42;;;23.30;93.20;;;;;;5078849;28;20039;-77
2022/06/14 04:06:00;;;;;;;4.65;2.67;;;23.40;93.10;;;;;;5061832;28;20047;-78
2022/06/14 04:08:28;;;;;;;8.32;3.03;;;23.50;92.90;;;;;;5079106;28;20174;-78
2022/06/14 04:11:05;;;;;;;4.28;2.50;;;23.60;92.70;;;;;;5113834;28;20092;-78
2022/06/14 04:13:49;;;;;;;5.22;2.47;;;23.70;92.40;;;;;;5078936;28;20051;-77
2022/06/14 04:16:40;;;;;;;4.60;2.70;;;23.80;92.20;;;;;;5078822;28;20044;-78
2022/06/14 04:19:35;;;;;;;3.00;2.58;;;24.00;92.00;;;;;;5061940;28;20047;-77
2022/06/14 04:22:48;;;;;;;4.07;2.63;;;24.20;91.70;;;;;;5062524;28;20042;-78
2022/06/14 04:25:22;;;;;;;2.92;2.20;;;24.30;91.30;;;;;;5078493;28;20043;-78
2022/06/14 04:28:08;;;;;;;4.63;2.50;;;24.60;91.10;;;;;;5078523;28;20127;-78
2022/06/14 04:30:41;;;;;;;;;;;24.70;90.80;;;;;;5078235;28;20051;-78
2022/06/14 04:33:17;;;;;;;3.22;2.42;;;24.80;90.80;;;;;;5078738;28;19947;-78
2022/06/14 04:35:56;;;;;;;4.60;2.50;;;24.90;90.60;;;;;;5078612;28;20059;-79
2022/06/14 04:38:34;;;;;;;3.85;2.40;;;25.00;90.50;;;;;;5061814;28;20040;-79
2022/06/14 04:41:18;;;;;;;3.17;2.30;;;25.20;90.50;;;;;;5078043;28;20447;-79
2022/06/14 04:44:06;;;;;;;4.88;2.65;;;25.30;90.30;;;;;;5095414;28;20060;-79
2022/06/14 04:46:42;;;;;;;5.85;2.78;;;25.40;90.10;;;;;;5094804;28;20048;-79
2022/06/14 04:49:35;;;;;;;3.17;2.13;;;25.50;90.10;;;;;;5061448;28;20074;-79
2022/06/14 04:52:07;;;;;;;5.30;3.15;;;25.60;90.10;;;;;;5077912;28;20430;-79
2022/06/14 04:54:41;;;;;;;4.22;2.63;;;25.70;90.00;;;;;;5094728;28;20055;-79
2022/06/14 04:57:29;;;;;;;3.85;2.55;;;25.80;89.90;;;;;;5078055;28;20071;-79
2022/06/14 05:00:08;;;;;;;8.82;2.55;;;25.90;89.80;;;;;;5077927;28;20118;-78
2022/06/14 05:02:41;;;;;;;4.78;2.90;;;26.00;89.80;;;;;;5077710;28;20138;-79
2022/06/14 05:05:23;;;;;;;5.60;2.58;;;26.10;90.00;;;;;;5077759;28;20043;-78
2022/06/14 05:08:17;;;;;;;4.53;2.75;;;26.20;90.00;;;;;;5078206;28;20062;-78
2022/06/14 05:11:08;;;;;;;5.53;3.00;;;26.40;90.00;;;;;;5077457;28;20051;-79
2022/06/14 05:13:56;;;;;;;4.20;2.90;;;26.40;89.90;;;;;;5053323;28;20060;-79
2022/06/14 05:16:36;;;;;;;5.75;2.97;;;26.60;90.00;;;;;;5058951;28;20052;-79
2022/06/14 05:19:23;;;;;;;5.20;2.40;;;26.70;90.00;;;;;;5057071;28;20040;-79
2022/06/14 05:22:03;;;;;;;4.72;3.00;;;26.80;90.00;;;;;;5057189;28;20058;-78
2022/06/14 05:24:31;;;;;;;6.60;3.10;;;26.90;90.10;;;;;;5073762;28;20478;-79
2022/06/14 05:27:11;;;;;;;4.07;3.08;;;27.00;90.00;;;;;;5056936;28;20146;-78
2022/06/14 05:29:44;;;;;;;7.47;2.97;;;27.20;90.10;;;;;;5091397;28;20159;-78
2022/06/14 05:32:12;;;;;;;3.83;2.45;;;27.20;90.20;;;;;;5092039;28;20121;-79
2022/06/14 05:34:46;;;;;;;5.88;2.35;;;27.30;90.30;;;;;;5040297;28;20055;-78
2022/06/14 05:37:34;;;;;;;2.78;2.42;;;27.50;90.00;;;;;;5049201;28;20040;-78
2022/06/14 05:40:20;;;;;;;5.60;2.20;;;27.60;90.00;;;;;;5054836;28;20036;-78
2022/06/14 05:43:11;;;;;;;5.43;2.70;;;27.80;90.10;;;;;;5071115;28;20497;-78
2022/06/14 05:45:47;;;;;;;5.00;2.72;;;27.90;89.60;;;;;;5038517;28;20109;-78
2022/06/14 05:48:23;;;;;;;4.78;3.05;;;28.10;89.50;;;;;;5051027;28;20061;-79
2022/06/14 05:50:55;;;;;;;6.68;3.00;;;28.10;89.40;;;;;;5067924;28;20604;-79
2022/06/14 05:53:48;;;;;;;4.57;2.58;;;28.20;88.60;;;;;;5041290;28;20048;-79
2022/06/14 05:56:22;;;;;;;3.13;2.20;;;28.30;88.60;;;;;;5071712;28;20742;-79
2022/06/14 05:58:59;;;;;;;5.25;2.80;;;28.40;88.50;;;;;;5072037;28;20044;-79
2022/06/14 06:01:44;;;;;;;6.03;3.28;;;28.50;88.10;;;;;;5051774;28;20059;-78
2022/06/14 06:04:40;;;;;;;4.18;2.58;;;28.70;88.00;;;;;;5035574;28;20517;-78
2022/06/14 06:07:11;;;;;;;6.45;3.00;;;28.70;87.50;;;;;;5035823;28;20510;-78
2022/06/14 06:09:51;;;;;;;3.58;2.22;;;28.80;87.70;;;;;;5052066;28;20127;-78
2022/06/14 06:12:27;;;;;;;4.18;3.05;;;28.80;87.40;;;;;;5011588;28;20735;-78
2022/06/14 06:15:04;;;;;;;5.38;2.38;;;28.90;87.50;;;;;;5035733;28;20070;-78
2022/06/14 06:17:41;;;;;;;4.07;2.88;;;29.00;87.60;;;;;;5051997;28;20056;-78
2022/06/14 06:20:15;;;;;;;2.95;2.10;;;29.10;87.90;;;;;;5051626;28;20036;-79
2022/06/14 06:22:53;;;;;;;4.57;2.58;;;29.20;88.10;;;;;;5047380;28;20186;-78
2022/06/14 06:25:32;;;;;;;6.10;3.08;;;29.10;88.10;;;;;;5052042;28;20498;-79
2022/06/14 06:28:13;;;;;;;8.32;3.22;;;29.10;88.40;;;;;;5051188;28;20529;-78
2022/06/14 06:30:49;;;;;;;5.00;3.13;;;29.10;88.60;;;;;;5051681;28;20097;-78
2022/06/14 06:33:20;;;;;;;4.13;2.90;;;29.10;88.50;;;;;;5034709;28;20094;-79
2022/06/14 06:36:11;;;;;;;8.90;3.30;;;29.20;88.20;;;;;;5036801;28;20053;-79
2022/06/14 06:38:50;;;;;;;3.95;2.90;;;29.30;87.60;;;;;;5040632;28;20044;-79
2022/06/14 06:44:29;;;;;;;8.68;3.88;;;29.40;87.20;;;;;;5071432;28;20040;-79
2022/06/14 06:47:22;;;;;;;6.95;3.25;;;29.50;87.20;;;;;;5050513;28;20055;-79
2022/06/14 06:49:49;;;;;;;8.23;2.88;;;29.70;87.20;;;;;;5034704;28;20048;-79
2022/06/14 06:52:33;;;;;;;13.00;2.97;;;29.70;86.60;;;;;;5081611;28;20414;-79
2022/06/14 06:55:09;;;;;;;3.67;2.78;;;29.90;86.40;;;;;;5088256;28;20452;-79
2022/06/14 06:57:39;;;;;;;5.45;3.10;;;30.00;85.90;;;;;;5067833;28;20135;-78
2022/06/14 07:00:10;;;;;;;3.40;2.63;;;30.00;85.70;;;;;;5034015;28;20048;-79
2022/06/14 07:02:46;;;;;;;4.72;2.55;;;30.10;85.30;;;;;;5054267;28;20151;-79
2022/06/14 07:05:17;;;;;;;5.18;3.08;;;30.00;84.80;;;;;;5062238;28;20052;-79
2022/06/14 07:08:06;;;;;;;6.72;2.90;;;30.00;85.10;;;;;;5055450;28;20052;-81
2022/06/14 07:10:50;;;;;;;4.03;2.80;;;30.10;85.20;;;;;;5038841;28;20101;-79
2022/06/14 07:13:28;;;;;;;5.28;3.28;;;30.20;85.00;;;;;;5080325;28;20047;-79
2022/06/14 07:16:16;;;;;;;4.72;2.72;;;30.40;85.00;;;;;;5075000;28;20065;-79
2022/06/14 07:18:51;;;;;;;7.57;2.92;;;30.50;84.80;;;;;;5090633;28;20101;-79
2022/06/14 07:21:30;;;;;;;5.78;2.92;;;30.50;84.60;;;;;;5091123;28;20080;-79
2022/06/14 07:24:11;;;;;;;3.50;2.83;;;30.70;84.70;;;;;;5076549;28;20059;-79
2022/06/14 07:26:44;;;;;;;5.07;2.92;;;30.80;84.60;;;;;;5078321;28;20039;-80
2022/06/14 07:29:14;;;;;;;5.47;2.83;;;30.60;84.00;;;;;;5061996;28;20058;-80
2022/06/14 07:32:00;;;;;;;4.50;2.65;;;30.70;84.60;;;;;;5078629;28;20043;-80
2022/06/14 07:34:29;;;;;;;5.40;3.47;;;30.80;84.40;;;;;;5078813;28;20056;-79
2022/06/14 07:37:02;;;;;;;6.60;2.75;;;30.80;84.30;;;;;;5113429;28;20044;-79
2022/06/14 07:39:59;;;;;;;4.95;3.08;;;30.80;84.10;;;;;;5061883;28;20401;-79
2022/06/14 07:42:44;;;;;;;6.30;2.83;;;30.80;84.50;;;;;;5078680;28;20071;-80
2022/06/14 07:45:33;;;;;;;4.13;2.60;;;30.80;84.50;;;;;;5078314;28;20051;-79
2022/06/14 07:48:30;;;;;;;5.40;2.95;;;31.00;84.50;;;;;;5094805;28;20524;-80
2022/06/14 07:51:29;;;;;;;3.38;2.72;;;31.00;84.40;;;;;;5078476;28;20066;-80
2022/06/14 07:54:09;;;;;;;7.28;3.28;;;31.00;84.30;;;;;;5073997;28;20067;-80
2022/06/14 07:57:01;;;;;;;4.00;3.05;;;31.00;84.70;;;;;;5078098;28;20142;-81
2022/06/14 07:59:34;;;;;;;4.50;3.00;;;30.90;84.30;;;;;;5094873;28;20108;-81
2022/06/14 08:02:12;;;;;;;3.72;3.00;;;30.80;84.60;;;;;;5094472;28;20036;-81
2022/06/14 08:05:15;;;;;;;4.20;2.95;;;30.70;84.70;;;;;;5094416;28;20044;-81
2022/06/14 08:07:47;;;;;;;6.55;3.45;;;30.80;85.20;;;;;;5081471;28;20493;-75
2022/06/14 08:10:22;;;;;;;4.50;2.95;;;30.80;85.80;;;;;;5077727;28;20093;-76
2022/06/14 08:13:00;;;;;;;4.37;2.93;;;30.90;85.20;;;;;;5042660;28;1453844;-75
2022/06/14 08:15:42;;;;;;;5.57;3.25;;;31.00;85.10;;;;;;5078859;28;20508;-74
2022/06/14 08:18:19;;;;;;;5.57;3.63;;;30.90;85.50;;;;;;5095749;28;20053;-75
2022/06/14 08:21:16;;;;;;;8.32;3.67;;;31.10;85.00;;;;;;5095452;28;20059;-76
2022/06/14 08:23:58;;;;;;;7.47;3.10;;;31.20;84.70;;;;;;5095370;28;20059;-76
2022/06/14 08:26:39;;;;;;;5.40;3.75;;;31.20;85.00;;;;;;5095853;28;20043;-77
2022/06/14 08:29:28;;;;;;;4.25;3.35;;;31.10;84.60;;;;;;5095665;28;20134;-76
2022/06/14 08:32:09;;;;;;;6.20;3.47;;;31.20;85.20;;;;;;5095791;28;20097;-74
2022/06/14 08:34:42;;;;;;;3.90;3.08;;;31.20;85.10;;;;;;5094667;28;20058;-74
2022/06/14 08:37:22;;;;;;;6.78;3.60;;;31.20;85.00;;;;;;5095347;28;20135;-76
2022/06/14 08:39:58;;;;;;;5.97;3.40;;;31.20;85.20;;;;;;5112936;28;20139;-73
2022/06/14 08:42:28;;;;;;;;;;;31.30;85.10;;;;;;5095647;28;20047;-74
2022/06/14 08:45:10;;;;;;;4.72;2.80;;;31.40;85.20;;;;;;5113323;28;19924;-74
2022/06/14 08:47:59;;;;;;;6.03;3.80;;;31.30;85.30;;;;;;5078470;28;20555;-77
2022/06/14 08:50:38;;;;;;;5.45;3.95;;;31.30;85.60;;;;;;5112616;28;20063;-78
2022/06/14 08:53:18;;;;;;;5.13;3.35;;;31.30;85.80;;;;;;5077701;28;20052;-77
2022/06/14 08:56:09;;;;;;;3.78;3.33;;;31.20;85.90;;;;;;5095084;28;20464;-76
2022/06/14 08:59:06;;;;;;;3.97;3.22;;;30.80;86.20;;;;;;5094423;28;20067;-77
2022/06/14 09:01:52;;;;;;;6.53;3.60;;;30.70;87.40;;;;;;5078069;28;20517;-76
2022/06/14 09:04:38;;;;;;;6.75;4.05;;;30.80;87.50;;;;;;5094807;28;20036;-77
2022/06/14 09:07:41;;;;;;;5.57;3.30;;;30.90;87.80;;;;;;5094497;28;20409;-77
2022/06/14 09:10:30;;;;;;;5.80;3.88;;;31.00;88.10;;;;;;5076857;28;20051;-77
2022/06/14 09:13:01;;;;;;;5.55;4.18;;;31.20;88.00;;;;;;5094373;28;20409;-77
2022/06/14 09:15:31;;;;;;;8.85;3.55;;;31.10;88.00;;;;;;5077099;28;20143;-77
2022/06/14 09:18:12;;;;;;;5.32;3.40;;;31.00;88.10;;;;;;5061272;28;20070;-76
2022/06/14 09:20:55;;;;;;;6.70;3.42;;;31.00;88.60;;;;;;5077211;28;20051;-75
2022/06/14 09:23:35;;;;;;;7.60;3.75;;;30.90;88.90;;;;;;5077661;28;20051;-76
2022/06/14 09:26:20;;;;;;;5.65;3.92;;;30.80;89.90;;;;;;5094336;28;20058;-77
2022/06/14 09:29:16;;;;;;;5.82;3.47;;;30.80;89.80;;;;;;5077279;28;20501;-76
2022/06/14 09:31:57;;;;;;;6.95;3.95;;;30.90;89.50;;;;;;5094412;28;20047;-76
2022/06/14 09:34:46;;;;;;;6.15;3.67;;;31.00;89.10;;;;;;5093927;28;20397;-76
2022/06/14 09:37:51;;;;;;;7.78;4.28;;;30.90;89.10;;;;;;5077048;28;20504;-77
2022/06/14 09:40:48;;;;;;;5.45;3.80;;;30.90;88.70;;;;;;5094125;28;20493;-76
2022/06/14 09:43:31;;;;;;;6.00;3.60;;;30.60;89.00;;;;;;5077376;28;20908;-76
2022/06/14 09:46:14;;;;;;;6.38;2.90;;;30.40;89.30;;;;;;5076460;28;20193;-75
2022/06/14 09:48:48;;;;;;;5.13;3.38;;;30.30;89.90;;;;;;5093790;28;20043;-77
2022/06/14 09:51:53;;;;;;;7.93;3.40;;;30.40;88.50;;;;;;5111686;28;20126;-76
2022/06/14 09:54:58;;;;;;;7.22;4.15;;;30.50;89.10;;;;;;5094147;28;20047;-76
2022/06/14 09:57:39;;;;;;;4.72;3.45;;;30.60;89.60;;;;;;5076186;28;20434;-76
2022/06/14 10:00:21;;;;;;;4.72;3.85;;;30.50;89.00;;;;;;5093635;28;20044;-75
2022/06/14 10:03:47;;;;;;;4.82;4.20;;;30.50;88.90;;;;;;5110917;28;20150;-76
2022/06/14 10:06:41;;;;;;;5.97;3.57;;;30.40;88.30;;;;;;5009033;28;20046;-76
2022/06/14 10:09:26;;;;;;;6.03;3.63;;;30.30;88.30;;;;;;4980029;28;20057;-76
2022/06/14 10:12:09;;;;;;;6.40;3.97;;;30.40;89.40;;;;;;5059519;28;20054;-76
2022/06/14 10:15:05;;;;;;;6.68;3.95;;;30.50;89.10;;;;;;5093083;28;20110;-75
2022/06/14 10:17:32;;;;;;;6.47;4.07;;;30.60;89.10;;;;;;5077028;28;20393;-76
2022/06/14 10:20:13;;;;;;;4.93;4.07;;;30.40;88.70;;;;;;5076755;28;20175;-76
2022/06/14 10:22:57;;;;;;;7.03;4.50;;;30.40;89.10;;;;;;5075897;28;20126;-76
2022/06/14 10:28:11;;;;;;;7.13;4.22;;;30.30;88.90;;;;;;5093006;28;20047;-76
2022/06/14 10:28:54;;;;;;;6.18;4.25;;;30.40;89.50;;;;;;5111095;28;20071;-74
2022/06/14 10:31:56;;;;;;;5.40;3.90;;;30.50;89.00;;;;;;5076277;28;20083;-77
2022/06/14 10:34:58;;;;;;;5.25;3.70;;;30.40;89.00;;;;;;5111155;28;20432;-76
2022/06/14 10:37:37;;;;;;;6.82;3.80;;;30.60;89.20;;;;;;5075538;28;20398;-76
2022/06/14 10:40:14;;;;;;;6.78;3.90;;;30.80;88.80;;;;;;5076377;28;20048;-76
2022/06/14 10:42:51;;;;;;;6.05;4.38;;;30.90;88.50;;;;;;5110797;28;20063;-77
2022/06/14 10:45:31;;;;;;;5.45;3.53;;;30.70;88.40;;;;;;5092619;28;20066;-77
2022/06/14 10:48:29;;;;;;;5.25;3.67;;;30.50;88.20;;;;;;5076066;28;20044;-75
2022/06/14 10:51:21;;;;;;;5.28;3.78;;;30.40;89.60;;;;;;5092980;28;20051;-75
2022/06/14 10:53:50;;;;;;;5.10;3.60;;;30.40;89.80;;;;;;5091827;28;20047;-76
2022/06/14 10:56:29;;;;;;;7.75;3.58;;;30.50;89.90;;;;;;5074974;28;20058;-76
2022/06/14 10:59:14;;;;;;;5.22;4.07;;;30.30;89.80;;;;;;5091865;28;20043;-75
2022/06/14 11:02:20;;;;;;;5.35;3.30;;;30.20;90.10;;;;;;5075209;28;20502;-79
2022/06/14 11:05:31;;;;;;;4.60;3.50;;;30.40;89.90;;;;;;5091510;28;20054;-77
2022/06/14 11:08:25;;;;;;;5.53;3.50;;;30.40;89.40;;;;;;5091862;28;20061;-76
2022/06/14 11:11:41;;;;;;;5.82;3.78;;;30.50;88.80;;;;;;5074718;28;20097;-76
2022/06/14 11:14:32;;;;;;;4.75;3.38;;;30.50;88.80;;;;;;5058072;28;20055;-77
2022/06/14 11:17:41;;;;;;;5.80;3.83;;;30.50;89.00;;;;;;5081315;28;20051;-76
2022/06/14 11:20:18;;;;;;;5.85;3.42;;;30.50;88.60;;;;;;5075028;28;20067;-76
2022/06/14 11:23:02;;;;;;;4.88;3.67;;;30.50;88.70;;;;;;5091082;28;20038;-76
2022/06/14 11:26:06;;;;;;;4.60;2.47;;;30.60;87.80;;;;;;5075135;28;20051;-76
2022/06/14 11:29:00;;;;;;;7.57;4.25;;;30.70;87.70;;;;;;5091664;28;20575;-76
2022/06/14 11:31:42;;;;;;;6.68;3.72;;;30.60;87.50;;;;;;5091487;28;20044;-75
2022/06/14 11:34:18;;;;;;;5.15;3.53;;;30.50;87.60;;;;;;5075127;28;20040;-76
2022/06/14 11:36:59;;;;;;;4.45;3.35;;;30.60;88.00;;;;;;5109556;28;20522;-76
2022/06/14 11:39:42;;;;;;;5.25;3.42;;;30.40;86.70;;;;;;5091675;28;20168;-76
2022/06/14 11:42:19;;;;;;;4.80;3.50;;;30.40;87.30;;;;;;5091294;28;20142;-76
2022/06/14 11:44:55;;;;;;;5.97;3.92;;;30.30;86.90;;;;;;5109210;28;20083;-76
2022/06/14 11:47:51;;;;;;;6.03;3.67;;;30.40;87.30;;;;;;5091740;28;20044;-76
2022/06/14 11:50:50;;;;;;;6.20;4.20;;;30.50;87.50;;;;;;5091615;28;20073;-75
2022/06/14 11:53:26;;;;;;;5.85;3.75;;;30.50;87.70;;;;;;5075008;28;20121;-76
2022/06/14 11:56:03;;;;;;;4.72;3.70;;;30.40;87.30;;;;;;5091094;28;20174;-75
2022/06/14 11:58:58;;;;;;;4.32;3.33;;;30.40;87.40;;;;;;5074331;28;20103;-75
2022/06/14 12:01:40;;;;;;;4.85;3.75;;;30.30;87.30;;;;;;5073961;28;20044;-76
2022/06/14 12:04:17;;;;;;;5.80;3.08;;;30.40;87.90;;;;;;5074429;28;20130;-76
2022/06/14 12:06:58;;;;;;;9.25;4.18;;;30.40;87.60;;;;;;5091370;28;20513;-75
2022/06/14 12:09:59;;;;;;;4.05;3.45;;;30.40;87.40;;;;;;5092086;28;20052;-75
2022/06/14 12:13:00;;;;;;;4.65;3.17;;;30.50;86.30;;;;;;5095358;28;20070;-75
2022/06/14 12:15:52;;;;;;;6.15;3.53;;;30.50;86.40;;;;;;5113299;28;20060;-74
2022/06/14 12:18:24;;;;;;;6.72;3.90;;;30.30;86.00;;;;;;5078489;28;20040;-76
2022/06/14 12:21:30;;;;;;;4.25;3.78;;;30.30;86.50;;;;;;5062569;28;20058;-75
2022/06/14 12:24:04;;;;;;;4.80;3.80;;;30.20;86.40;;;;;;5042531;28;20051;-75
2022/06/14 12:26:42;;;;;;;4.55;3.13;;;30.30;86.90;;;;;;5095283;28;20039;-76
2022/06/14 12:29:28;;;;;;;5.82;3.65;;;30.20;86.60;;;;;;5077984;28;20096;-75
2022/06/14 12:32:01;;;;;;;;;;;30.20;86.50;;;;;;5114047;28;20133;-75
2022/06/14 12:34:42;;;;;;;4.70;3.58;;;30.20;87.00;;;;;;5112844;28;19920;-75
2022/06/14 12:37:12;;;;;;;5.10;3.35;;;30.30;87.30;;;;;;5078552;28;20059;-75
2022/06/14 12:39:47;;;;;;;6.07;3.30;;;30.40;86.90;;;;;;5078588;28;20051;-75
2022/06/14 12:42:21;;;;;;;4.22;3.08;;;30.50;86.80;;;;;;5061249;28;20040;-75
2022/06/14 12:45:07;;;;;;;6.13;4.25;;;30.60;86.40;;;;;;5078243;28;20063;-74
2022/06/14 12:47:53;;;;;;;4.60;3.58;;;30.50;86.30;;;;;;5094093;28;20039;-74
2022/06/14 12:50:21;;;;;;;;;;;30.30;86.80;;;;;;5112703;28;20074;-75
2022/06/14 12:52:56;;;;;;;;;;;30.30;87.10;;;;;;5094082;28;20023;-75
2022/06/14 12:55:27;;;;;;;;;;;30.20;87.60;;;;;;5094885;28;19923;-75
2022/06/14 12:58:13;;;;;;;;;;;30.20;87.00;;;;;;5077937;28;19977;-76
2022/06/14 13:00:47;;;;;;;;;;;30.30;87.10;;;;;;5077101;28;19959;-75
2022/06/14 13:03:35;;;;;;;;;;;30.20;86.10;;;;;;5094599;28;19927;-75
2022/06/14 13:06:12;;;;;;;;;;;30.10;86.40;;;;;;5094226;28;20392;-75
2022/06/14 13:08:58;;;;;;;;;;;29.90;86.30;;;;;;5077243;28;19931;-75
2022/06/14 13:11:26;;;;;;;;;;;29.90;86.80;;;;;;5077874;28;19926;-74
2022/06/14 13:14:06;;;;;;;;;;;29.90;86.80;;;;;;5060996;28;19924;-76
2022/06/14 13:16:52;;;;;;;;;;;29.90;86.30;;;;;;5094364;28;19919;-75
2022/06/14 13:19:29;;;;;;;;;;;29.90;86.30;;;;;;5077881;28;19919;-74
2022/06/14 13:21:56;;;;;;;;;;;30.00;86.80;;;;;;5076534;28;19923;-74
2022/06/14 13:24:29;;;;;;;;;;;30.00;86.10;;;;;;5094712;28;19932;-76
2022/06/14 13:27:09;;;;;;;;;;;30.00;85.60;;;;;;5077733;28;19919;-74
2022/06/14 13:29:43;;;;;;;;;;;30.10;85.60;;;;;;5061206;28;19924;-76
2022/06/14 13:32:17;;;;;;;;;;;30.10;85.80;;;;;;5094776;28;19927;-76
2022/06/14 13:34:55;;;;;;;;;;;30.10;85.20;;;;;;5094813;28;19924;-76
2022/06/14 13:37:31;;;;;;;;;;;30.10;86.00;;;;;;5076231;28;19939;-73
2022/06/14 13:40:06;;;;;;;;;;;30.10;85.60;;;;;;5094010;28;19920;-75
2022/06/14 13:42:41;;;;;;;;;;;30.10;84.30;;;;;;5093444;28;19931;-79
2022/06/14 13:45:22;;;;;;;;;;;30.00;84.70;;;;;;5076715;28;19928;-75
2022/06/14 13:48:08;;;;;;;;;;;30.00;84.90;;;;;;5077188;28;19923;-75
2022/06/14 13:50:44;;;;;;;;;;;30.00;85.10;;;;;;5093599;28;20258;-76
2022/06/14 13:53:19;;;;;;;;;;;30.00;84.30;;;;;;5077057;28;20377;-75
2022/06/14 13:55:49;;;;;;;;;;;30.00;84.30;;;;;;5077071;28;19924;-76
2022/06/14 13:58:39;;;;;;;;;;;29.90;84.10;;;;;;5076947;28;20018;-76
2022/06/14 14:01:06;;;;;;;;;;;29.80;84.20;;;;;;5067162;28;20030;-74
2022/06/14 14:03:47;;;;;;;;;;;29.70;84.10;;;;;;5077486;28;19924;-76
2022/06/14 14:06:26;;;;;;;;;;;29.70;84.20;;;;;;5076742;28;19921;-74
2022/06/14 14:09:05;;;;;;;;;;;29.90;84.60;;;;;;5093434;28;20385;-75
2022/06/14 14:11:44;;;;;;;;;;;29.90;84.30;;;;;;5093376;28;19926;-76
2022/06/14 14:14:31;;;;;;;;;;;30.00;84.30;;;;;;5093552;28;19920;-76
2022/06/14 14:17:08;;;;;;;;;;;29.90;84.30;;;;;;5076424;28;19920;-78
2022/06/14 14:19:36;;;;;;;;;;;29.80;83.40;;;;;;5076672;28;20012;-76
2022/06/14 14:22:03;;;;;;;;;;;29.80;83.40;;;;;;5093576;28;20293;-76